Wetterdaten: Woche 06.05.13 - 12.05.13 (KW19)
Datum Zeit Temp. Aussen +5cm Feuchte Auss Luftdruck Regen Sonnenschein Regendauer UV Solar Windben
06.05.2013 00:00 11,3 C 8,6 C 74 % 1021,7 hPa 0,0 l/m 0,00 h 0,00 h 0,0 UV-I 0 W/m 0,0 km/h (0 Bft)
06.05.2013 01:00 10,2 C 7,8 C 78 % 1021,5 hPa 0,0 l/m 0,00 h 0,00 h 0,0 UV-I 0 W/m 0,0 km/h (0 Bft)
06.05.2013 02:00 9,2 C 7,1 C 80 % 1021,0 hPa 0,0 l/m 0,00 h 0,00 h 0,0 UV-I 0 W/m 0,0 km/h (0 Bft)
06.05.2013 03:00 8,6 C 6,8 C 83 % 1020,6 hPa 0,0 l/m 0,00 h 0,00 h 0,0 UV-I 0 W/m 0,0 km/h (0 Bft)
06.05.2013 04:00 8,1 C 6,3 C 84 % 1020,2 hPa 0,0 l/m 0,00 h 0,00 h 0,0 UV-I 0 W/m 0,0 km/h (0 Bft)
06.05.2013 05:00 7,6 C 5,7 C 85 % 1019,9 hPa 0,0 l/m 0,00 h 0,00 h 0,0 UV-I 5 W/m 0,0 km/h (0 Bft)
06.05.2013 06:00 7,2 C 5,8 C 87 % 1019,9 hPa 0,0 l/m 0,00 h 0,00 h 0,0 UV-I 20 W/m 0,0 km/h (0 Bft)
06.05.2013 07:00 7,6 C 7,5 C 90 % 1020,2 hPa 0,0 l/m 0,00 h 0,00 h 0,0 UV-I 67 W/m 0,0 km/h (0 Bft)
06.05.2013 08:00 10,0 C 10,6 C 91 % 1020,2 hPa 0,0 l/m 0,73 h 0,00 h 0,0 UV-I 243 W/m 0,3 km/h (0 Bft)
06.05.2013 09:00 15,7 C 17,6 C 75 % 1019,9 hPa 0,0 l/m 1,00 h 0,00 h 0,9 UV-I 433 W/m 6,0 km/h (2 Bft)
06.05.2013 10:00 19,9 C 25,8 C 62 % 1019,7 hPa 0,0 l/m 1,00 h 0,00 h 1,8 UV-I 573 W/m 9,4 km/h (2 Bft)
06.05.2013 11:00 21,8 C 26,4 C 56 % 1019,3 hPa 0,0 l/m 1,00 h 0,00 h 2,9 UV-I 677 W/m 8,7 km/h (2 Bft)
06.05.2013 12:00 23,2 C 30,7 C 51 % 1018,7 hPa 0,0 l/m 1,00 h 0,00 h 3,4 UV-I 760 W/m 7,5 km/h (2 Bft)
06.05.2013 13:00 24,5 C 30,0 C 42 % 1018,1 hPa 0,0 l/m 1,00 h 0,00 h 2,7 UV-I 800 W/m 9,2 km/h (2 Bft)
06.05.2013 14:00 24,5 C 25,2 C 42 % 1017,6 hPa 0,0 l/m 0,80 h 0,00 h 3,2 UV-I 674 W/m 8,8 km/h (2 Bft)
06.05.2013 15:00 24,1 C 24,6 C 42 % 1016,9 hPa 0,0 l/m 0,43 h 0,00 h 2,0 UV-I 475 W/m 9,2 km/h (2 Bft)
06.05.2013 16:00 24,1 C 24,5 C 41 % 1016,4 hPa 0,0 l/m 0,80 h 0,00 h 1,6 UV-I 526 W/m 12,0 km/h (2 Bft)
06.05.2013 17:00 24,5 C 24,0 C 40 % 1015,9 hPa 0,0 l/m 1,00 h 0,00 h 1,0 UV-I 417 W/m 14,0 km/h (3 Bft)
06.05.2013 18:00 23,8 C 22,6 C 41 % 1015,5 hPa 0,0 l/m 0,13 h 0,00 h 0,5 UV-I 165 W/m 11,9 km/h (2 Bft)
06.05.2013 19:00 22,8 C 21,4 C 44 % 1015,4 hPa 0,0 l/m 0,00 h 0,00 h 0,0 UV-I 72 W/m 10,8 km/h (2 Bft)
06.05.2013 20:00 21,2 C 18,1 C 51 % 1015,5 hPa 0,0 l/m 0,00 h 0,00 h 0,0 UV-I 21 W/m 0,3 km/h (0 Bft)
06.05.2013 21:00 19,3 C 15,0 C 57 % 1015,8 hPa 0,0 l/m 0,00 h 0,00 h 0,0 UV-I 0 W/m 0,0 km/h (0 Bft)
06.05.2013 22:00 17,2 C 13,7 C 62 % 1015,8 hPa 0,0 l/m 0,00 h 0,00 h 0,0 UV-I 0 W/m 0,0 km/h (0 Bft)
06.05.2013 23:00 15,9 C 13,1 C 65 % 1015,9 hPa 0,0 l/m 0,00 h 0,00 h 0,0 UV-I 0 W/m 0,1 km/h (0 Bft)
07.05.2013 00:00 15,2 C 12,7 C 66 % 1015,8 hPa 0,0 l/m 0,00 h 0,00 h 0,0 UV-I 0 W/m 0,1 km/h (0 Bft)
07.05.2013 01:00 14,6 C 12,0 C 69 % 1015,6 hPa 0,0 l/m 0,00 h 0,00 h 0,0 UV-I 0 W/m 0,0 km/h (0 Bft)
07.05.2013 02:00 13,5 C 10,7 C 73 % 1015,5 hPa 0,0 l/m 0,00 h 0,00 h 0,0 UV-I 0 W/m 0,0 km/h (0 Bft)
07.05.2013 03:00 12,3 C 9,7 C 77 % 1015,1 hPa 0,0 l/m 0,00 h 0,00 h 0,0 UV-I 0 W/m 0,0 km/h (0 Bft)
07.05.2013 04:00 11,2 C 8,9 C 81 % 1015,0 hPa 0,0 l/m 0,00 h 0,00 h 0,0 UV-I 0 W/m 0,0 km/h (0 Bft)
07.05.2013 05:00 10,4 C 8,4 C 83 % 1015,2 hPa 0,0 l/m 0,00 h 0,00 h 0,0 UV-I 5 W/m 0,0 km/h (0 Bft)
07.05.2013 06:00 9,9 C 8,7 C 86 % 1015,4 hPa 0,0 l/m 0,20 h 0,00 h 0,0 UV-I 36 W/m 0,0 km/h (0 Bft)
07.05.2013 07:00 10,9 C 11,7 C 89 % 1015,4 hPa 0,0 l/m 0,00 h 0,00 h 0,0 UV-I 98 W/m 0,3 km/h (0 Bft)
07.05.2013 08:00 14,0 C 14,6 C 84 % 1015,2 hPa 0,0 l/m 0,77 h 0,00 h 0,0 UV-I 272 W/m 1,6 km/h (1 Bft)
07.05.2013 09:00 18,2 C 20,6 C 73 % 1014,8 hPa 0,0 l/m 0,90 h 0,00 h 0,8 UV-I 407 W/m 5,8 km/h (2 Bft)
07.05.2013 10:00 21,1 C 24,9 C 61 % 1014,5 hPa 0,0 l/m 0,87 h 0,00 h 1,5 UV-I 483 W/m 15,0 km/h (3 Bft)
07.05.2013 11:00 22,0 C 26,7 C 59 % 1014,4 hPa 0,0 l/m 0,97 h 0,00 h 2,4 UV-I 671 W/m 14,6 km/h (3 Bft)
07.05.2013 12:00 21,9 C 25,5 C 62 % 1014,2 hPa 0,0 l/m 0,60 h 0,00 h 2,5 UV-I 535 W/m 14,6 km/h (3 Bft)
07.05.2013 13:00 20,6 C 21,3 C 66 % 1013,9 hPa 0,0 l/m 0,13 h 0,00 h 1,2 UV-I 211 W/m 14,4 km/h (3 Bft)
07.05.2013 14:00 18,0 C 16,4 C 81 % 1013,7 hPa 1,2 l/m 0,00 h 0,67 h 0,0 UV-I 77 W/m 12,9 km/h (3 Bft)
07.05.2013 15:00 16,7 C 14,8 C 90 % 1013,3 hPa 0,4 l/m 0,00 h 0,40 h 0,0 UV-I 58 W/m 5,3 km/h (1 Bft)
07.05.2013 16:00 16,6 C 14,4 C 91 % 1013,2 hPa 2,0 l/m 0,00 h 1,00 h 0,0 UV-I 18 W/m 2,6 km/h (1 Bft)
07.05.2013 17:00 15,7 C 14,3 C 94 % 1012,8 hPa 2,0 l/m 0,00 h 0,60 h 0,0 UV-I 110 W/m 3,9 km/h (1 Bft)
07.05.2013 18:00 15,6 C 14,6 C 97 % 1012,6 hPa 0,0 l/m 0,00 h 0,00 h 0,0 UV-I 52 W/m 1,2 km/h (1 Bft)
07.05.2013 19:00 15,5 C 14,4 C 97 % 1012,4 hPa 0,0 l/m 0,00 h 0,20 h 0,0 UV-I 32 W/m 0,5 km/h (0 Bft)
07.05.2013 20:00 15,4 C 14,0 C 98 % 1012,5 hPa 0,0 l/m 0,00 h 0,00 h 0,0 UV-I 9 W/m 0,5 km/h (0 Bft)
07.05.2013 21:00 15,1 C 13,4 C 98 % 1012,4 hPa 0,0 l/m 0,00 h 0,00 h 0,0 UV-I 0 W/m 0,9 km/h (0 Bft)
07.05.2013 22:00 14,8 C 13,2 C 98 % 1012,5 hPa 0,0 l/m 0,00 h 0,00 h 0,0 UV-I 0 W/m 0,3 km/h (0 Bft)
07.05.2013 23:00 14,0 C 11,8 C 97 % 1012,4 hPa 0,0 l/m 0,00 h 0,00 h 0,0 UV-I 0 W/m 0,0 km/h (0 Bft)
08.05.2013 00:00 13,1 C 11,0 C 97 % 1012,3 hPa 0,0 l/m 0,00 h 0,00 h 0,0 UV-I 0 W/m 0,7 km/h (0 Bft)
08.05.2013 01:00 12,3 C 10,5 C 97 % 1012,1 hPa 0,0 l/m 0,00 h 0,00 h 0,0 UV-I 0 W/m 1,0 km/h (0 Bft)
08.05.2013 02:00 11,8 C 10,1 C 97 % 1011,8 hPa 0,0 l/m 0,00 h 0,00 h 0,0 UV-I 0 W/m 1,3 km/h (1 Bft)
08.05.2013 03:00 11,4 C 9,6 C 97 % 1011,6 hPa 0,0 l/m 0,00 h 0,00 h 0,0 UV-I 0 W/m 0,4 km/h (0 Bft)
08.05.2013 04:00 10,9 C 9,2 C 98 % 1011,3 hPa 0,0 l/m 0,00 h 0,00 h 0,0 UV-I 0 W/m 0,0 km/h (0 Bft)
08.05.2013 05:00 10,5 C 9,0 C 98 % 1011,0 hPa 0,0 l/m 0,00 h 0,00 h 0,0 UV-I 5 W/m 4,1 km/h (1 Bft)
08.05.2013 06:00 10,2 C 9,0 C 98 % 1010,9 hPa 0,0 l/m 0,00 h 0,03 h 0,0 UV-I 19 W/m 1,7 km/h (1 Bft)
08.05.2013 07:00 10,4 C 9,6 C 99 % 1010,7 hPa 0,0 l/m 0,00 h 0,00 h 0,0 UV-I 65 W/m 6,8 km/h (2 Bft)
08.05.2013 08:00 11,9 C 11,7 C 99 % 1010,7 hPa 0,0 l/m 0,07 h 0,00 h 0,0 UV-I 149 W/m 11,3 km/h (2 Bft)
08.05.2013 09:00 12,8 C 12,3 C 99 % 1010,9 hPa 0,2 l/m 0,00 h 0,20 h 0,0 UV-I 81 W/m 6,9 km/h (2 Bft)
08.05.2013 10:00 14,4 C 16,3 C 99 % 1010,8 hPa 0,0 l/m 0,50 h 0,00 h 1,4 UV-I 391 W/m 12,3 km/h (3 Bft)
08.05.2013 11:00 18,2 C 20,9 C 85 % 1010,6 hPa 0,0 l/m 0,93 h 0,00 h 2,3 UV-I 626 W/m 12,0 km/h (2 Bft)
08.05.2013 12:00 20,3 C 23,2 C 75 % 1010,2 hPa 0,0 l/m 0,63 h 0,00 h 2,3 UV-I 577 W/m 11,0 km/h (2 Bft)
08.05.2013 13:00 21,3 C 22,1 C 66 % 1009,8 hPa 0,0 l/m 0,43 h 0,00 h 2,0 UV-I 492 W/m 10,9 km/h (2 Bft)
08.05.2013 14:00 22,1 C 21,8 C 58 % 1009,4 hPa 0,0 l/m 0,50 h 0,00 h 2,2 UV-I 453 W/m 14,1 km/h (3 Bft)
08.05.2013 15:00 20,0 C 17,9 C 66 % 1009,5 hPa 0,2 l/m 0,00 h 0,50 h 0,8 UV-I 161 W/m 11,1 km/h (2 Bft)
08.05.2013 16:00 17,3 C 15,2 C 88 % 1009,8 hPa 0,4 l/m 0,00 h 0,83 h 0,6 UV-I 161 W/m 2,4 km/h (1 Bft)
08.05.2013 17:00 18,4 C 17,0 C 83 % 1009,2 hPa 0,0 l/m 0,03 h 0,20 h 0,5 UV-I 208 W/m 14,2 km/h (3 Bft)
08.05.2013 18:00 18,1 C 16,0 C 82 % 1008,9 hPa 0,0 l/m 0,00 h 0,23 h 0,0 UV-I 68 W/m 13,6 km/h (3 Bft)
08.05.2013 19:00 17,2 C 14,4 C 87 % 1009,0 hPa 0,2 l/m 0,00 h 0,43 h 0,0 UV-I 39 W/m 6,9 km/h (2 Bft)
08.05.2013 20:00 16,8 C 15,0 C 86 % 1009,1 hPa 0,0 l/m 0,00 h 0,03 h 0,0 UV-I 21 W/m 8,9 km/h (2 Bft)
08.05.2013 21:00 16,4 C 14,4 C 87 % 1009,6 hPa 0,0 l/m 0,00 h 0,00 h 0,0 UV-I 5 W/m 3,6 km/h (1 Bft)
08.05.2013 22:00 15,8 C 14,0 C 89 % 1010,0 hPa 0,0 l/m 0,00 h 0,00 h 0,0 UV-I 0 W/m 3,4 km/h (1 Bft)
08.05.2013 23:00 15,6 C 14,1 C 86 % 1010,6 hPa 0,0 l/m 0,00 h 0,00 h 0,0 UV-I 0 W/m 5,3 km/h (1 Bft)
09.05.2013 00:00 14,7 C 12,5 C 86 % 1010,9 hPa 1,8 l/m 0,00 h 0,60 h 0,0 UV-I 0 W/m 4,3 km/h (1 Bft)
09.05.2013 01:00 13,4 C 11,8 C 93 % 1011,0 hPa 0,6 l/m 0,00 h 0,57 h 0,0 UV-I 0 W/m 2,1 km/h (1 Bft)
09.05.2013 02:00 12,8 C 11,3 C 95 % 1011,1 hPa 0,0 l/m 0,00 h 0,00 h 0,0 UV-I 0 W/m 0,7 km/h (0 Bft)
09.05.2013 03:00 12,5 C 11,1 C 96 % 1011,1 hPa 0,0 l/m 0,00 h 0,00 h 0,0 UV-I 0 W/m 0,3 km/h (0 Bft)
09.05.2013 04:00 12,3 C 10,9 C 96 % 1011,1 hPa 0,0 l/m 0,00 h 0,03 h 0,0 UV-I 0 W/m 0,1 km/h (0 Bft)
09.05.2013 05:00 12,1 C 10,8 C 97 % 1011,4 hPa 0,2 l/m 0,00 h 0,17 h 0,0 UV-I 5 W/m 0,0 km/h (0 Bft)
09.05.2013 06:00 12,1 C 11,2 C 97 % 1011,8 hPa 0,0 l/m 0,00 h 0,00 h 0,0 UV-I 14 W/m 0,5 km/h (0 Bft)
09.05.2013 07:00 12,5 C 11,7 C 98 % 1012,3 hPa 0,0 l/m 0,00 h 0,00 h 0,0 UV-I 39 W/m 0,3 km/h (0 Bft)
09.05.2013 08:00 11,9 C 10,6 C 97 % 1013,1 hPa 1,2 l/m 0,00 h 0,77 h 0,0 UV-I 64 W/m 5,2 km/h (1 Bft)
09.05.2013 09:00 12,1 C 11,5 C 96 % 1013,6 hPa 0,0 l/m 0,00 h 0,07 h 0,0 UV-I 163 W/m 4,0 km/h (1 Bft)
09.05.2013 10:00 13,0 C 12,5 C 88 % 1013,7 hPa 0,0 l/m 0,27 h 0,00 h 1,0 UV-I 276 W/m 6,4 km/h (2 Bft)
09.05.2013 11:00 15,4 C 19,2 C 75 % 1013,7 hPa 0,0 l/m 0,90 h 0,00 h 2,9 UV-I 718 W/m 9,9 km/h (2 Bft)
09.05.2013 12:00 16,7 C 23,0 C 64 % 1013,4 hPa 0,0 l/m 1,00 h 0,00 h 3,2 UV-I 783 W/m 9,2 km/h (2 Bft)
09.05.2013 13:00 17,7 C 22,1 C 64 % 1013,2 hPa 0,0 l/m 1,00 h 0,00 h 2,4 UV-I 852 W/m 12,4 km/h (3 Bft)
09.05.2013 14:00 18,2 C 18,3 C 62 % 1013,1 hPa 0,0 l/m 0,97 h 0,00 h 3,7 UV-I 821 W/m 14,0 km/h (3 Bft)
09.05.2013 15:00 18,8 C 18,4 C 61 % 1012,5 hPa 0,0 l/m 0,50 h 0,00 h 3,3 UV-I 792 W/m 16,5 km/h (3 Bft)
09.05.2013 16:00 18,7 C 19,1 C 61 % 1011,8 hPa 0,0 l/m 0,37 h 0,00 h 1,6 UV-I 443 W/m 11,4 km/h (2 Bft)
09.05.2013 17:00 18,4 C 17,8 C 62 % 1011,4 hPa 0,0 l/m 0,50 h 0,00 h 0,9 UV-I 372 W/m 11,3 km/h (2 Bft)
09.05.2013 18:00 17,8 C 16,4 C 64 % 1011,1 hPa 0,0 l/m 0,30 h 0,00 h 0,5 UV-I 165 W/m 7,6 km/h (2 Bft)
09.05.2013 19:00 16,9 C 15,4 C 66 % 1010,9 hPa 0,0 l/m 0,07 h 0,00 h 0,0 UV-I 60 W/m 3,6 km/h (1 Bft)
09.05.2013 20:00 16,2 C 14,4 C 68 % 1011,1 hPa 0,0 l/m 0,50 h 0,00 h 0,0 UV-I 40 W/m 1,2 km/h (1 Bft)
09.05.2013 21:00 15,3 C 13,1 C 70 % 1011,4 hPa 0,0 l/m 0,00 h 0,00 h 0,0 UV-I 11 W/m 0,6 km/h (0 Bft)
09.05.2013 22:00 14,3 C 11,4 C 73 % 1012,0 hPa 0,0 l/m 0,00 h 0,00 h 0,0 UV-I 0 W/m 0,3 km/h (0 Bft)
09.05.2013 23:00 13,1 C 11,5 C 75 % 1012,1 hPa 0,0 l/m 0,00 h 0,00 h 0,0 UV-I 0 W/m 0,3 km/h (0 Bft)
10.05.2013 00:00 12,9 C 11,3 C 76 % 1011,8 hPa 0,0 l/m 0,00 h 0,00 h 0,0 UV-I 0 W/m 0,3 km/h (0 Bft)
10.05.2013 01:00 12,5 C 10,6 C 75 % 1011,5 hPa 0,0 l/m 0,00 h 0,00 h 0,0 UV-I 0 W/m 0,6 km/h (0 Bft)
10.05.2013 02:00 11,9 C 10,0 C 76 % 1011,4 hPa 0,0 l/m 0,00 h 0,00 h 0,0 UV-I 0 W/m 2,1 km/h (1 Bft)
10.05.2013 03:00 11,5 C 10,3 C 76 % 1011,2 hPa 0,0 l/m 0,00 h 0,00 h 0,0 UV-I 0 W/m 8,3 km/h (2 Bft)
10.05.2013 04:00 11,4 C 9,8 C 76 % 1011,4 hPa 0,0 l/m 0,00 h 0,00 h 0,0 UV-I 0 W/m 8,4 km/h (2 Bft)
10.05.2013 05:00 10,5 C 9,0 C 80 % 1011,4 hPa 0,0 l/m 0,00 h 0,00 h 0,0 UV-I 5 W/m 6,5 km/h (2 Bft)
10.05.2013 06:00 10,0 C 8,9 C 81 % 1011,4 hPa 0,0 l/m 0,00 h 0,00 h 0,0 UV-I 19 W/m 7,3 km/h (2 Bft)
10.05.2013 07:00 10,8 C 10,3 C 79 % 1011,7 hPa 0,0 l/m 0,00 h 0,00 h 0,0 UV-I 83 W/m 12,9 km/h (3 Bft)
10.05.2013 08:00 11,7 C 11,2 C 75 % 1012,2 hPa 0,0 l/m 0,00 h 0,17 h 0,0 UV-I 105 W/m 11,9 km/h (2 Bft)
10.05.2013 09:00 12,0 C 12,5 C 75 % 1012,8 hPa 0,0 l/m 0,23 h 0,17 h 1,2 UV-I 251 W/m 16,1 km/h (3 Bft)
10.05.2013 10:00 13,8 C 16,7 C 72 % 1013,0 hPa 0,0 l/m 0,40 h 0,00 h 1,4 UV-I 473 W/m 18,2 km/h (3 Bft)
10.05.2013 11:00 14,7 C 17,1 C 69 % 1013,2 hPa 0,0 l/m 0,47 h 0,00 h 2,3 UV-I 559 W/m 18,2 km/h (3 Bft)
10.05.2013 12:00 14,3 C 15,0 C 69 % 1013,5 hPa 0,0 l/m 0,10 h 0,00 h 1,5 UV-I 294 W/m 18,8 km/h (3 Bft)
10.05.2013 13:00 15,5 C 18,1 C 67 % 1013,8 hPa 0,0 l/m 0,40 h 0,00 h 1,8 UV-I 506 W/m 17,5 km/h (3 Bft)
10.05.2013 14:00 14,7 C 15,1 C 70 % 1014,2 hPa 0,0 l/m 0,10 h 0,00 h 1,4 UV-I 290 W/m 16,2 km/h (3 Bft)
10.05.2013 15:00 14,7 C 14,8 C 70 % 1014,4 hPa 0,0 l/m 0,00 h 0,00 h 0,9 UV-I 178 W/m 11,6 km/h (2 Bft)
10.05.2013 16:00 14,9 C 15,1 C 69 % 1014,6 hPa 0,0 l/m 0,07 h 0,00 h 1,3 UV-I 198 W/m 13,2 km/h (3 Bft)
10.05.2013 17:00 14,4 C 13,8 C 72 % 1014,6 hPa 0,0 l/m 0,00 h 0,03 h 0,0 UV-I 78 W/m 6,5 km/h (2 Bft)
10.05.2013 18:00 14,3 C 13,8 C 75 % 1014,6 hPa 0,0 l/m 0,00 h 0,10 h 0,0 UV-I 102 W/m 10,2 km/h (2 Bft)
10.05.2013 19:00 13,1 C 11,0 C 84 % 1015,1 hPa 0,2 l/m 0,00 h 0,57 h 0,0 UV-I 26 W/m 5,9 km/h (2 Bft)
10.05.2013 20:00 12,3 C 10,8 C 89 % 1015,2 hPa 0,0 l/m 0,00 h 0,00 h 0,0 UV-I 20 W/m 4,8 km/h (1 Bft)
10.05.2013 21:00 12,2 C 11,1 C 87 % 1015,7 hPa 0,0 l/m 0,00 h 0,00 h 0,0 UV-I 5 W/m 5,4 km/h (1 Bft)
10.05.2013 22:00 12,2 C 11,0 C 86 % 1016,2 hPa 0,0 l/m 0,00 h 0,00 h 0,0 UV-I 0 W/m 3,3 km/h (1 Bft)
10.05.2013 23:00 11,5 C 9,7 C 85 % 1016,5 hPa 0,0 l/m 0,00 h 0,00 h 0,0 UV-I 0 W/m 2,4 km/h (1 Bft)
11.05.2013 00:00 10,5 C 9,0 C 87 % 1016,7 hPa 0,0 l/m 0,00 h 0,00 h 0,0 UV-I 0 W/m 4,5 km/h (1 Bft)
11.05.2013 01:00 9,9 C 8,5 C 87 % 1016,5 hPa 0,0 l/m 0,00 h 0,00 h 0,0 UV-I 0 W/m 4,0 km/h (1 Bft)
11.05.2013 02:00 9,5 C 8,0 C 88 % 1016,1 hPa 0,0 l/m 0,00 h 0,00 h 0,0 UV-I 0 W/m 2,2 km/h (1 Bft)
11.05.2013 03:00 9,1 C 7,9 C 90 % 1015,7 hPa 0,0 l/m 0,00 h 0,00 h 0,0 UV-I 0 W/m 2,3 km/h (1 Bft)
11.05.2013 04:00 8,7 C 6,9 C 91 % 1015,3 hPa 0,0 l/m 0,00 h 0,00 h 0,0 UV-I 0 W/m 2,2 km/h (1 Bft)
11.05.2013 05:00 8,0 C 6,7 C 93 % 1014,8 hPa 0,0 l/m 0,00 h 0,00 h 0,0 UV-I 6 W/m 3,7 km/h (1 Bft)
11.05.2013 06:00 8,1 C 7,5 C 95 % 1014,7 hPa 0,0 l/m 0,00 h 0,00 h 0,0 UV-I 32 W/m 1,3 km/h (1 Bft)
11.05.2013 07:00 9,4 C 9,6 C 95 % 1014,5 hPa 0,0 l/m 0,00 h 0,00 h 0,0 UV-I 86 W/m 5,0 km/h (1 Bft)
11.05.2013 08:00 10,8 C 10,7 C 90 % 1014,4 hPa 0,0 l/m 0,00 h 0,00 h 0,0 UV-I 89 W/m 5,3 km/h (1 Bft)
11.05.2013 09:00 11,4 C 11,1 C 86 % 1014,4 hPa 0,0 l/m 0,00 h 0,07 h 0,0 UV-I 107 W/m 5,7 km/h (1 Bft)
11.05.2013 10:00 13,3 C 15,0 C 81 % 1013,8 hPa 0,0 l/m 0,50 h 0,00 h 1,3 UV-I 362 W/m 9,8 km/h (2 Bft)
11.05.2013 11:00 15,2 C 16,6 C 72 % 1013,0 hPa 0,0 l/m 0,97 h 0,00 h 2,0 UV-I 472 W/m 17,6 km/h (3 Bft)
11.05.2013 12:00 15,2 C 15,9 C 69 % 1012,8 hPa 0,0 l/m 0,30 h 0,23 h 2,3 UV-I 263 W/m 21,5 km/h (4 Bft)
11.05.2013 13:00 9,9 C 8,3 C 86 % 1013,9 hPa 1,2 l/m 0,00 h 0,90 h 0,0 UV-I 89 W/m 9,8 km/h (2 Bft)
11.05.2013 14:00 10,6 C 10,5 C 91 % 1013,3 hPa 0,0 l/m 0,23 h 0,20 h 1,9 UV-I 397 W/m 3,9 km/h (1 Bft)
11.05.2013 15:00 13,2 C 13,0 C 82 % 1012,8 hPa 0,0 l/m 0,33 h 0,00 h 2,2 UV-I 454 W/m 9,0 km/h (2 Bft)
11.05.2013 16:00 14,7 C 15,3 C 71 % 1012,3 hPa 0,0 l/m 0,55 h 0,00 h 1,6 UV-I 499 W/m 13,0 km/h (3 Bft)
11.05.2013 17:00 14,8 C 14,6 C 68 % 1011,8 hPa 0,0 l/m 0,00 h 0,00 h 0,6 UV-I 240 W/m 16,0 km/h (3 Bft)
11.05.2013 18:00 14,7 C 13,8 C 68 % 1011,4 hPa 0,0 l/m 0,07 h 0,00 h 0,0 UV-I 127 W/m 13,9 km/h (3 Bft)
11.05.2013 19:00 13,3 C 11,8 C 76 % 1011,8 hPa 0,0 l/m 0,00 h 0,23 h 0,0 UV-I 55 W/m 11,1 km/h (2 Bft)
11.05.2013 20:00 12,5 C 11,3 C 80 % 1011,9 hPa 0,0 l/m 0,00 h 0,00 h 0,0 UV-I 21 W/m 10,9 km/h (2 Bft)
11.05.2013 21:00 12,1 C 10,8 C 80 % 1012,1 hPa 0,0 l/m 0,00 h 0,07 h 0,0 UV-I 5 W/m 10,1 km/h (2 Bft)
11.05.2013 22:00 11,8 C 10,5 C 83 % 1012,1 hPa 0,0 l/m 0,00 h 0,07 h 0,0 UV-I 0 W/m 15,0 km/h (3 Bft)
11.05.2013 23:00 10,8 C 9,2 C 87 % 1012,1 hPa 0,2 l/m 0,00 h 0,83 h 0,0 UV-I 0 W/m 14,6 km/h (3 Bft)
12.05.2013 00:00 9,9 C 8,8 C 86 % 1012,0 hPa 0,0 l/m 0,00 h 0,10 h 0,0 UV-I 0 W/m 9,6 km/h (2 Bft)
12.05.2013 01:00 9,8 C 8,4 C 87 % 1011,7 hPa 0,0 l/m 0,00 h 0,83 h 0,0 UV-I 0 W/m 11,9 km/h (2 Bft)
12.05.2013 02:00 9,2 C 7,4 C 91 % 1011,4 hPa 0,2 l/m 0,00 h 0,90 h 0,0 UV-I 0 W/m 10,3 km/h (2 Bft)
12.05.2013 03:00 8,5 C 7,0 C 92 % 1011,3 hPa 0,0 l/m 0,00 h 0,37 h 0,0 UV-I 0 W/m 9,6 km/h (2 Bft)
12.05.2013 04:00 8,2 C 6,8 C 93 % 1011,0 hPa 0,2 l/m 0,00 h 0,55 h 0,0 UV-I 0 W/m 9,4 km/h (2 Bft)
12.05.2013 05:00 8,1 C 6,8 C 92 % 1011,0 hPa 0,4 l/m 0,00 h 0,37 h 0,0 UV-I 0 W/m 7,5 km/h (2 Bft)
12.05.2013 06:00 7,6 C 6,3 C 93 % 1011,1 hPa 2,0 l/m 0,00 h 0,80 h 0,0 UV-I 11 W/m 5,7 km/h (1 Bft)
12.05.2013 07:00 7,2 C 6,2 C 94 % 1011,7 hPa 1,2 l/m 0,00 h 0,43 h 0,0 UV-I 39 W/m 5,1 km/h (1 Bft)
12.05.2013 08:00 7,1 C 6,2 C 94 % 1012,4 hPa 1,0 l/m 0,20 h 0,57 h 0,0 UV-I 118 W/m 10,4 km/h (2 Bft)
12.05.2013 09:00 7,1 C 7,7 C 94 % 1013,1 hPa 0,2 l/m 0,57 h 0,13 h 0,9 UV-I 345 W/m 10,2 km/h (2 Bft)
12.05.2013 10:00 9,5 C 11,4 C 87 % 1013,5 hPa 0,0 l/m 0,30 h 0,07 h 1,1 UV-I 345 W/m 13,3 km/h (3 Bft)
12.05.2013 11:00 10,5 C 13,8 C 80 % 1014,0 hPa 0,0 l/m 0,77 h 0,17 h 2,4 UV-I 690 W/m 16,0 km/h (3 Bft)
12.05.2013 12:00 11,9 C 15,9 C 72 % 1014,3 hPa 0,0 l/m 0,73 h 0,00 h 2,6 UV-I 707 W/m 17,1 km/h (3 Bft)
12.05.2013 13:00 11,8 C 14,4 C 75 % 1014,5 hPa 0,0 l/m 0,63 h 0,00 h 2,2 UV-I 662 W/m 18,6 km/h (3 Bft)
12.05.2013 14:00 12,2 C 12,6 C 75 % 1014,9 hPa 0,0 l/m 0,33 h 0,23 h 2,3 UV-I 473 W/m 17,1 km/h (3 Bft)
12.05.2013 15:00 12,9 C 13,5 C 73 % 1015,0 hPa 0,0 l/m 0,30 h 0,03 h 2,0 UV-I 430 W/m 15,7 km/h (3 Bft)
12.05.2013 16:00 13,2 C 13,7 C 71 % 1015,1 hPa 0,0 l/m 0,27 h 0,03 h 1,3 UV-I 364 W/m 16,5 km/h (3 Bft)
12.05.2013 17:00 10,7 C 9,5 C 86 % 1015,7 hPa 0,4 l/m 0,07 h 0,37 h 0,5 UV-I 178 W/m 6,9 km/h (2 Bft)
12.05.2013 18:00 11,6 C 10,1 C 82 % 1015,7 hPa 0,0 l/m 0,13 h 0,17 h 0,5 UV-I 132 W/m 8,7 km/h (2 Bft)
12.05.2013 19:00 11,3 C 10,3 C 80 % 1016,1 hPa 0,0 l/m 0,00 h 0,00 h 0,0 UV-I 60 W/m 11,1 km/h (2 Bft)
12.05.2013 20:00 10,8 C 9,3 C 80 % 1016,4 hPa 0,0 l/m 0,00 h 0,00 h 0,0 UV-I 15 W/m 5,3 km/h (1 Bft)
12.05.2013 21:00 10,3 C 9,0 C 82 % 1016,6 hPa 0,0 l/m 0,00 h 0,00 h 0,0 UV-I 5 W/m 0,1 km/h (0 Bft)
12.05.2013 22:00 10,1 C 8,7 C 83 % 1016,7 hPa 0,0 l/m 0,00 h 0,00 h 0,0 UV-I 0 W/m 1,6 km/h (1 Bft)
12.05.2013 23:00 9,8 C 8,3 C 81 % 1016,5 hPa 0,0 l/m 0,00 h 0,00 h 0,0 UV-I 0 W/m 1,2 km/h (1 Bft)
Min-Datum _ 12.05.13 12.05.13 06.05.13 08.05.13 - - - - - 06.05.13
_ Min-Zeit 09:12 07:30 13:30 18:30 - - - - - 00:00
Minimum _ 6,3 C 5,1 C 37 % 1008,8 hPa - - - - - 0,0 km/h (0 Bft)
Max-Datum _ 06.05.13 06.05.13 08.05.13 06.05.13 07.05.13 06.05.13 07.05.13 09.05.13 12.05.13 11.05.13
_ Max-Zeit 13:56 12:52 10:38 00:22 17:00 08:16 14:16 14:18 14:02 12:38
Maximum _ 25,4 C 32,9 C 100 % 1021,8 hPa 2,0 l/m 0,03 h 0,03 h 4,3 UV-I 1081 W/m 41,2 km/h
W-SW (6 Bft)
Durchschnitt _ 13,8 C 13,3 C 80 % 1013,7 hPa #17,6 l/m #31:49 h #17:21 h 1,7 UV-I 252 W/m 6,9 km/h (2 Bft)
© 2013 W. Hausmann